Time;durP1;ratioP1;P1;durP2;ratioP2;P2;SDS_P1;SDS_P2;PMS_P1;PMS_P2;Temp;Humidity;BMP_temperature;BMP_pressure;BME280_temperature;BME280_humidity;BME280_pressure;Samples;Min_cycle;Max_cycle;Signal;HPM_P1;HPM_P2
2022/01/08 00:00:09;;;;;;;;;;;;;;;2.52;86.54;100972.06;5004377;28;19925;-74
2022/01/08 00:02:34;;;;;;;;;;;;;;;2.57;87.93;100984.09;5005822;28;20515;-70
2022/01/08 00:05:00;;;;;;;;;;;;;;;2.63;88.41;100991.84;4986160;28;19925;-73
2022/01/08 00:07:25;;;;;;;;;;;;;;;2.69;88.06;100987.44;4986270;28;20445;-73
2022/01/08 00:09:50;;;;;;;;;;;;;;;2.70;88.66;100990.00;5001006;28;19921;-72
2022/01/08 00:12:16;;;;;;;;;;;;;;;2.66;88.66;100992.66;5004593;28;20036;-72
2022/01/08 00:14:41;;;;;;;;;;;;;;;2.61;89.21;100998.78;4987832;28;20390;-73
2022/01/08 00:17:06;;;;;;;;;;;;;;;2.61;89.52;100993.59;5003789;28;20342;-72
2022/01/08 00:19:32;;;;;;;;;;;;;;;2.62;89.99;100997.03;4984759;28;19933;-72
2022/01/08 00:21:57;;;;;;;;;;;;;;;2.52;90.92;100996.28;5000716;28;19925;-73
2022/01/08 00:24:22;;;;;;;;;;;;;;;2.47;91.05;101003.25;5004756;28;20673;-71
2022/01/08 00:26:47;;;;;;;;;;;;;;;2.39;90.92;101002.47;4993479;28;19961;-72
2022/01/08 00:29:13;;;;;;;;;;;;;;;2.36;91.61;101002.50;4996982;28;19929;-72
2022/01/08 00:31:38;;;;;;;;;;;;;;;2.31;91.34;101015.50;4999625;28;19929;-73
2022/01/08 00:34:03;;;;;;;;;;;;;;;2.30;91.26;101014.66;4998865;28;20279;-72
2022/01/08 00:36:29;;;;;;;;;;;;;;;2.24;91.29;101014.69;4997828;28;19952;-71
2022/01/08 00:38:54;;;;;;;;;;;;;;;2.22;92.29;101008.66;5002888;28;19925;-72
2022/01/08 00:41:19;;;;;;;;;;;;;;;2.27;92.60;101008.63;4998773;28;19993;-72
2022/01/08 00:43:44;;;;;;;;;;;;;;;2.32;92.70;101018.06;4997198;28;19953;-73
2022/01/08 00:46:10;;;;;;;;;;;;;;;2.35;92.72;101012.03;5001032;28;19928;-73
2022/01/08 00:48:35;;;;;;;;;;;;;;;2.29;92.60;101007.75;4998623;28;20556;-74
2022/01/08 00:51:00;;;;;;;;;;;;;;;2.27;92.44;101008.63;5003694;28;19971;-74
2022/01/08 00:53:26;;;;;;;;;;;;;;;2.23;92.57;101012.13;4997302;28;20295;-73
2022/01/08 00:55:51;;;;;;;;;;;;;;;2.19;92.69;101016.50;4992914;28;19937;-72
2022/01/08 00:58:16;;;;;;;;;;;;;;;2.15;92.57;101009.59;5003401;28;20398;-71
2022/01/08 01:00:42;;;;;;;;;;;;;;;2.13;92.49;101009.63;5006777;28;20392;-71
2022/01/08 01:03:07;;;;;;;;;;;;;;;2.13;92.66;101012.22;4978880;28;19922;-70
2022/01/08 01:05:33;;;;;;;;;;;;;;;2.12;93.02;101010.50;5010372;28;20626;-71
2022/01/08 01:07:58;;;;;;;;;;;;;;;2.19;92.96;101002.66;4997915;28;19934;-71
2022/01/08 01:10:23;;;;;;;;;;;;;;;2.19;92.38;100995.75;4986806;28;19972;-71
2022/01/08 01:12:48;;;;;;;;;;;;;;;2.12;92.28;100997.53;4998569;28;19925;-71
2022/01/08 01:15:16;;;;;;;;;;;;;;;2.08;92.92;101005.38;5001564;28;19926;-71
2022/01/08 01:17:42;;;;;;;;;;;;;;;2.00;92.95;100998.50;4991041;28;19929;-72
2022/01/08 01:20:08;;;;;;;;;;;;;;;1.99;93.07;101009.72;4997234;28;19980;-72
2022/01/08 01:25:19;;;;;;;;;;;;;;;1.94;94.07;101010.63;4997179;28;19933;-70
2022/01/08 01:48:55;;;;;;;;;;;;;;;1.97;94.63;101008.91;5002028;28;19983;-71
2022/01/08 01:51:21;;;;;;;;;;;;;;;2.05;94.27;101003.63;5011706;28;20267;-73
2022/01/08 01:53:47;;;;;;;;;;;;;;;2.17;93.43;101003.53;5015137;28;19928;-73
2022/01/08 01:56:14;;;;;;;;;;;;;;;2.17;92.80;101002.69;5022822;28;19924;-72
2022/01/08 01:58:39;;;;;;;;;;;;;;;2.09;92.52;101004.50;5004301;28;19975;-72
2022/01/08 02:01:05;;;;;;;;;;;;;;;2.06;92.64;101001.91;5015540;28;19925;-71
2022/01/08 02:03:30;;;;;;;;;;;;;;;1.98;92.83;101007.16;5023488;28;19929;-71
2022/01/08 02:05:55;;;;;;;;;;;;;;;1.89;93.25;101023.63;5008233;28;20358;-71
2022/01/08 02:08:21;;;;;;;;;;;;;;;1.85;93.17;101009.84;4996103;28;19926;-71
2022/01/08 02:10:46;;;;;;;;;;;;;;;1.87;93.65;101012.44;5012427;28;20329;-70
2022/01/08 02:13:19;;;;;;;;;;;;;;;1.93;93.53;101011.53;5012749;28;20007;-71
2022/01/08 02:15:49;;;;;;;;;;;;;;;1.99;92.80;101001.09;4991651;28;20346;-71
2022/01/08 02:18:15;;;;;;;;;;;;;;;2.03;92.96;101007.13;5008720;28;19921;-70
2022/01/08 02:20:40;;;;;;;;;;;;;;;2.06;91.88;101012.28;5019277;28;19921;-71
2022/01/08 02:23:05;;;;;;;;;;;;;;;2.08;90.81;101003.63;5001018;28;19941;-70
2022/01/08 02:25:31;;;;;;;;;;;;;;;2.15;89.62;101004.44;5003700;28;19944;-72
2022/01/08 02:27:56;;;;;;;;;;;;;;;2.13;90.03;101000.97;5014502;28;19932;-71
2022/01/08 02:30:21;;;;;;;;;;;;;;;2.07;90.75;101007.06;5001004;28;19922;-70
2022/01/08 02:32:46;;;;;;;;;;;;;;;2.01;90.75;101010.59;5008545;28;20020;-70
2022/01/08 02:35:12;;;;;;;;;;;;;;;1.96;91.33;101011.50;5002874;28;19929;-71
2022/01/08 02:37:37;;;;;;;;;;;;;;;1.89;91.68;101013.28;5022680;28;20028;-73
2022/01/08 02:40:05;;;;;;;;;;;;;;;1.76;91.99;101016.84;5021924;28;19933;-73
2022/01/08 02:42:37;;;;;;;;;;;;;;;1.74;92.48;101019.44;5022472;28;19936;-72
2022/01/08 02:45:04;;;;;;;;;;;;;;;1.78;91.79;101020.25;5021187;28;19932;-72
2022/01/08 02:47:29;;;;;;;;;;;;;;;1.73;92.34;101022.03;5024320;28;19921;-72
2022/01/08 02:49:54;;;;;;;;;;;;;;;1.66;93.12;101023.81;5025507;28;19948;-71
2022/01/08 02:52:20;;;;;;;;;;;;;;;1.61;92.89;101020.38;5022909;28;20061;-71
2022/01/08 02:54:45;;;;;;;;;;;;;;;1.64;93.77;101031.59;5022157;28;19917;-73
2022/01/08 02:57:10;;;;;;;;;;;;;;;1.70;94.41;101031.56;5025355;28;19971;-71
2022/01/08 02:59:35;;;;;;;;;;;;;;;1.79;93.96;101030.63;5025030;28;19947;-73
2022/01/08 03:02:01;;;;;;;;;;;;;;;1.87;93.93;101040.94;5022789;28;19974;-73
2022/01/08 03:04:26;;;;;;;;;;;;;;;1.96;93.96;101040.88;5017933;28;19971;-71
2022/01/08 03:06:51;;;;;;;;;;;;;;;2.07;94.18;101040.78;5022642;28;19932;-71
2022/01/08 03:09:17;;;;;;;;;;;;;;;2.20;94.36;101027.72;5038503;28;20043;-72
2022/01/08 03:11:43;;;;;;;;;;;;;;;2.23;94.81;101038.06;5026945;28;19924;-72
2022/01/08 03:14:08;;;;;;;;;;;;;;;2.22;95.00;101032.00;5026572;28;19917;-72
2022/01/08 03:16:34;;;;;;;;;;;;;;;2.25;95.31;101028.53;5029586;28;19925;-72
2022/01/08 03:19:07;;;;;;;;;;;;;;;2.25;95.82;101031.97;5039114;28;19964;-72
2022/01/08 03:21:35;;;;;;;;;;;;;;;2.23;95.94;101028.53;5008948;28;20445;-72
2022/01/08 03:24:02;;;;;;;;;;;;;;;2.22;95.93;101020.78;5024267;28;19946;-72
2022/01/08 03:26:27;;;;;;;;;;;;;;;2.22;95.78;101026.81;5030359;28;19921;-72
2022/01/08 03:28:54;;;;;;;;;;;;;;;2.23;95.70;101028.53;5024202;28;19921;-72
2022/01/08 03:31:20;;;;;;;;;;;;;;;2.24;94.68;101027.66;5040230;28;19962;-72
2022/01/08 03:33:46;;;;;;;;;;;;;;;2.19;94.83;101026.88;5046251;28;19916;-71
2022/01/08 03:36:13;;;;;;;;;;;;;;;2.14;94.60;101026.03;5045045;28;19925;-72
2022/01/08 03:38:38;;;;;;;;;;;;;;;2.05;94.83;101024.38;5046433;28;20035;-72
2022/01/08 03:41:04;;;;;;;;;;;;;;;2.04;94.63;101017.47;5042352;28;20015;-71
2022/01/08 03:43:29;;;;;;;;;;;;;;;1.98;94.91;101017.53;5044135;28;19948;-72
2022/01/08 03:45:54;;;;;;;;;;;;;;;1.86;94.97;101026.28;5043943;28;19925;-72
2022/01/08 03:51:01;;;;;;;;;;;;;;;1.67;95.37;101036.75;5043438;28;19931;-72
2022/01/08 03:53:26;;;;;;;;;;;;;;;1.57;95.59;101042.00;5042674;28;19966;-71
2022/01/08 03:55:52;;;;;;;;;;;;;;;1.50;95.88;101047.22;5045496;28;20597;-72
2022/01/08 03:58:18;;;;;;;;;;;;;;;1.43;96.20;101045.53;5044507;28;19924;-71
2022/01/08 04:00:44;;;;;;;;;;;;;;;1.40;96.72;101050.72;5045629;28;20261;-72
2022/01/08 04:03:09;;;;;;;;;;;;;;;1.36;96.72;101052.47;5040916;28;19925;-73
2022/01/08 04:05:35;;;;;;;;;;;;;;;1.44;96.63;101052.44;5047435;28;19928;-71
2022/01/08 04:08:00;;;;;;;;;;;;;;;1.46;96.44;101047.25;5044635;28;19928;-74
2022/01/08 04:10:25;;;;;;;;;;;;;;;1.39;96.49;101047.28;5040281;28;20710;-72
2022/01/08 04:15:36;;;;;;;;;;;;;;;1.20;96.72;101041.34;5044063;28;20254;-73
2022/01/08 04:18:01;;;;;;;;;;;;;;;1.13;97.43;101038.78;5025288;28;20011;-72
2022/01/08 04:20:26;;;;;;;;;;;;;;;1.05;97.77;101052.63;5025651;28;20012;-72
2022/01/08 04:22:52;;;;;;;;;;;;;;;0.98;97.93;101056.09;5025493;28;19921;-72
2022/01/08 04:25:18;;;;;;;;;;;;;;;0.95;98.50;101048.34;5025796;28;19952;-71
2022/01/08 04:27:44;;;;;;;;;;;;;;;0.91;98.69;101059.56;5031673;28;19932;-71
2022/01/08 04:30:09;;;;;;;;;;;;;;;0.83;98.62;101056.16;5026719;28;19921;-71
2022/01/08 04:32:35;;;;;;;;;;;;;;;0.79;98.95;101059.59;5026494;28;20524;-72
2022/01/08 04:35:00;;;;;;;;;;;;;;;0.76;98.51;101076.00;5027765;28;19956;-71
2022/01/08 04:37:25;;;;;;;;;;;;;;;0.71;99.19;101065.66;5026299;28;20513;-72
2022/01/08 04:39:50;;;;;;;;;;;;;;;0.72;99.23;101064.78;5009586;28;20367;-72
2022/01/08 04:42:16;;;;;;;;;;;;;;;0.84;99.32;101060.44;5025508;28;19961;-72
2022/01/08 04:44:41;;;;;;;;;;;;;;;0.91;98.78;101063.03;5026751;28;19921;-73
2022/01/08 04:47:06;;;;;;;;;;;;;;;0.94;99.36;101063.88;5025644;28;19917;-73
2022/01/08 04:49:32;;;;;;;;;;;;;;;0.95;99.35;101063.88;5026153;28;19929;-72
2022/01/08 04:51:57;;;;;;;;;;;;;;;1.03;98.96;101059.53;5027141;28;19967;-72
2022/01/08 04:54:23;;;;;;;;;;;;;;;1.04;98.85;101060.41;5025581;28;20298;-72
2022/01/08 04:56:48;;;;;;;;;;;;;;;1.05;98.86;101060.38;5022465;28;19971;-72
2022/01/08 04:59:13;;;;;;;;;;;;;;;1.14;99.06;101063.78;5027496;28;19921;-72
2022/01/08 05:01:38;;;;;;;;;;;;;;;1.20;99.28;101061.19;5046751;28;20543;-72
2022/01/08 05:04:04;;;;;;;;;;;;;;;1.31;98.73;101062.00;5017936;28;19917;-72
2022/01/08 05:06:30;;;;;;;;;;;;;;;1.33;99.07;101060.25;5006720;28;19921;-72
2022/01/08 05:08:55;;;;;;;;;;;;;;;1.31;98.44;101056.84;5015120;28;20009;-71
2022/01/08 05:11:20;;;;;;;;;;;;;;;1.30;97.87;101054.22;5020318;28;20404;-72
2022/01/08 05:13:46;;;;;;;;;;;;;;;1.26;98.36;101053.38;5026867;28;19918;-71
2022/01/08 05:16:11;;;;;;;;;;;;;;;1.22;98.33;101059.44;5026277;28;20091;-72
2022/01/08 05:18:37;;;;;;;;;;;;;;;1.23;98.68;101055.97;5006522;28;20322;-72
2022/01/08 05:23:43;;;;;;;;;;;;;;;1.28;98.33;101050.78;5025207;28;20370;-71
2022/01/08 05:26:09;;;;;;;;;;;;;;;1.33;98.30;101052.47;5034076;28;19928;-71
2022/01/08 05:28:34;;;;;;;;;;;;;;;1.32;98.43;101044.72;5045454;28;19939;-71
2022/01/08 05:30:59;;;;;;;;;;;;;;;1.35;98.79;101050.75;5046032;28;19924;-71
2022/01/08 05:33:24;;;;;;;;;;;;;;;1.39;98.63;101060.22;5044157;28;20066;-70
2022/01/08 05:35:50;;;;;;;;;;;;;;;1.45;98.70;101064.50;5046059;28;19948;-71
2022/01/08 05:38:15;;;;;;;;;;;;;;;1.52;98.38;101065.34;5045439;28;19924;-73
2022/01/08 05:40:40;;;;;;;;;;;;;;;1.61;98.54;101067.00;5044518;28;19923;-71
2022/01/08 05:43:06;;;;;;;;;;;;;;;1.69;97.96;101073.88;5046410;28;19917;-70
2022/01/08 05:45:31;;;;;;;;;;;;;;;1.76;98.18;101076.44;5008535;28;19976;-71
2022/01/08 05:47:56;;;;;;;;;;;;;;;1.83;97.51;101065.16;5005833;28;19925;-72
2022/01/08 05:50:21;;;;;;;;;;;;;;;1.87;97.07;101060.78;5012055;28;19937;-71
2022/01/08 05:52:48;;;;;;;;;;;;;;;1.85;96.42;101060.81;5024308;28;19925;-70
2022/01/08 05:55:14;;;;;;;;;;;;;;;1.85;95.86;101066.84;5023782;28;19928;-71
2022/01/08 05:57:39;;;;;;;;;;;;;;;1.80;95.70;101065.16;5005113;28;19918;-71
2022/01/08 06:00:05;;;;;;;;;;;;;;;1.77;95.43;101055.69;5003759;28;19918;-71
2022/01/08 06:02:30;;;;;;;;;;;;;;;1.80;94.69;101054.78;5002613;28;19925;-71
2022/01/08 06:04:55;;;;;;;;;;;;;;;1.79;94.50;101047.88;4983987;28;19925;-70
2022/01/08 06:07:20;;;;;;;;;;;;;;;1.77;94.38;101049.63;4983297;28;20339;-71
2022/01/08 06:09:46;;;;;;;;;;;;;;;1.76;94.40;101042.75;4999033;28;19924;-71
2022/01/08 06:12:11;;;;;;;;;;;;;;;1.70;94.51;101047.09;4997997;28;19918;-71
2022/01/08 06:14:37;;;;;;;;;;;;;;;1.72;93.77;101048.81;5004435;28;19928;-72
2022/01/08 06:17:02;;;;;;;;;;;;;;;1.73;93.34;101048.78;4999418;28;19960;-71
2022/01/08 06:19:27;;;;;;;;;;;;;;;1.75;93.21;101047.06;4986489;28;20012;-71
2022/01/08 06:21:52;;;;;;;;;;;;;;;1.76;93.02;101046.19;4998838;28;19961;-71
2022/01/08 06:24:18;;;;;;;;;;;;;;;1.75;92.74;101041.88;5003895;28;19918;-71
2022/01/08 06:26:43;;;;;;;;;;;;;;;1.74;93.25;101036.72;5017987;28;20007;-71
2022/01/08 06:29:08;;;;;;;;;;;;;;;1.73;92.79;101035.00;5023792;28;19925;-71
2022/01/08 06:31:34;;;;;;;;;;;;;;;1.70;93.13;101033.28;5027415;28;19972;-80
2022/01/08 06:34:00;;;;;;;;;;;;;;;1.72;93.35;101035.88;5026879;28;19945;-80
2022/01/08 06:36:25;;;;;;;;;;;;;;;1.74;93.01;101027.22;5026065;28;19921;-80
2022/01/08 06:38:51;;;;;;;;;;;;;;;1.74;92.77;101029.78;5027816;28;19924;-80
2022/01/08 06:41:16;;;;;;;;;;;;;;;1.75;92.83;101025.50;5009027;28;20533;-72
2022/01/08 06:43:42;;;;;;;;;;;;;;;1.74;92.89;101021.19;5018887;28;19956;-71
2022/01/08 06:46:07;;;;;;;;;;;;;;;1.73;93.49;101017.72;5008662;28;20528;-70
2022/01/08 06:48:32;;;;;;;;;;;;;;;1.74;93.23;101019.44;5008289;28;19922;-71
2022/01/08 06:50:58;;;;;;;;;;;;;;;1.74;93.43;101018.59;5012116;28;19930;-71
2022/01/08 06:53:23;;;;;;;;;;;;;;;1.72;92.94;101020.31;5028619;28;19917;-70
2022/01/08 06:55:49;;;;;;;;;;;;;;;1.73;93.21;101024.63;5034587;28;19928;-70
2022/01/08 06:58:14;;;;;;;;;;;;;;;1.70;92.95;101022.94;5048633;28;19921;-72
2022/01/08 07:00:39;;;;;;;;;;;;;;;1.70;92.88;101012.56;5048806;28;19947;-72
2022/01/08 07:03:09;;;;;;;;;;;;;;;1.70;92.39;101017.75;5036123;28;19924;-73
2022/01/08 07:05:35;;;;;;;;;;;;;;;1.73;92.32;101011.69;5008969;28;19926;-72
2022/01/08 07:08:00;;;;;;;;;;;;;;;1.72;92.73;101015.16;5007992;28;19976;-72
2022/01/08 07:10:25;;;;;;;;;;;;;;;1.72;92.69;101009.97;5038794;28;20438;-73
2022/01/08 07:12:51;;;;;;;;;;;;;;;1.71;92.78;101003.91;5028033;28;19967;-72
2022/01/08 07:15:16;;;;;;;;;;;;;;;1.74;92.81;101003.06;5028783;28;19979;-72
2022/01/08 07:17:42;;;;;;;;;;;;;;;1.76;92.50;100999.56;5018362;28;19917;-72
2022/01/08 07:20:07;;;;;;;;;;;;;;;1.78;92.50;101005.59;5007662;28;20423;-71
2022/01/08 07:22:33;;;;;;;;;;;;;;;1.79;92.53;100998.69;5029889;28;19924;-71
2022/01/08 07:24:59;;;;;;;;;;;;;;;1.80;92.86;101008.16;5028039;28;19917;-70
2022/01/08 07:27:24;;;;;;;;;;;;;;;1.81;92.89;101002.13;5046603;28;19916;-71
2022/01/08 07:29:49;;;;;;;;;;;;;;;1.83;92.62;101002.97;5048132;28;19964;-71
2022/01/08 07:32:15;;;;;;;;;;;;;;;1.88;92.50;101000.34;5029438;28;20035;-71
2022/01/08 07:34:40;;;;;;;;;;;;;;;1.90;92.61;100996.84;5029254;28;19917;-71
2022/01/08 07:37:05;;;;;;;;;;;;;;;1.91;92.94;100996.00;5028594;28;19925;-78
2022/01/08 07:39:31;;;;;;;;;;;;;;;1.92;92.80;100997.72;5030655;28;20577;-80
2022/01/08 07:41:56;;;;;;;;;;;;;;;1.96;92.67;100995.94;5011948;28;19917;-79
2022/01/08 07:44:21;;;;;;;;;;;;;;;1.97;92.34;100995.94;5020163;28;19975;-78
2022/01/08 07:46:46;;;;;;;;;;;;;;;1.99;92.62;100989.00;5011556;28;19917;-79
2022/01/08 07:49:12;;;;;;;;;;;;;;;2.03;92.39;100992.44;5009077;28;19980;-79
2022/01/08 07:51:37;;;;;;;;;;;;;;;2.04;92.33;100990.72;5010531;28;19947;-80
2022/01/08 07:54:02;;;;;;;;;;;;;;;2.07;92.66;100988.09;5009705;28;19984;-78
2022/01/08 07:56:27;;;;;;;;;;;;;;;2.06;92.50;100987.22;5040268;28;20003;-80
2022/01/08 07:58:53;;;;;;;;;;;;;;;2.04;92.23;100981.19;5049884;28;19924;-78
2022/01/08 08:01:18;;;;;;;;;;;;;;;2.07;92.57;100975.97;5040399;28;19967;-80
2022/01/08 08:03:44;;;;;;;;;;;;;;;2.01;92.87;100976.91;5018234;28;20008;-80
2022/01/08 08:06:10;;;;;;;;;;;;;;;1.97;92.18;100970.03;5008467;28;19922;-79
2022/01/08 08:08:35;;;;;;;;;;;;;;;2.01;92.10;100971.72;5017343;28;19985;-78
2022/01/08 08:11:01;;;;;;;;;;;;;;;2.05;91.87;100963.91;5030118;28;20410;-79
2022/01/08 08:13:26;;;;;;;;;;;;;;;2.02;92.46;100964.81;5029505;28;20325;-79
2022/01/08 08:15:51;;;;;;;;;;;;;;;2.03;92.27;100957.88;5029821;28;19921;-78
2022/01/08 08:18:17;;;;;;;;;;;;;;;2.03;91.99;100963.06;5011472;28;19928;-79
2022/01/08 08:20:42;;;;;;;;;;;;;;;2.01;92.20;100950.97;5014916;28;20402;-79
2022/01/08 08:23:08;;;;;;;;;;;;;;;2.01;92.27;100939.78;5010272;28;19957;-77
2022/01/08 08:25:33;;;;;;;;;;;;;;;2.03;91.95;100931.97;5034647;28;20421;-78
2022/01/08 08:27:58;;;;;;;;;;;;;;;2.03;92.00;100927.66;5030821;28;20012;-78
2022/01/08 08:30:24;;;;;;;;;;;;;;;2.06;91.53;100926.78;5029052;28;20510;-80
2022/01/08 08:32:50;;;;;;;;;;;;;;;2.06;91.94;100925.03;5030491;28;19952;-79
2022/01/08 08:35:15;;;;;;;;;;;;;;;2.09;92.14;100924.16;5028131;28;19936;-77
2022/01/08 08:37:41;;;;;;;;;;;;;;;2.07;92.00;100923.31;5010861;28;20270;-78
2022/01/08 08:40:07;;;;;;;;;;;;;;;2.07;92.29;100921.56;5027656;28;20363;-76
2022/01/08 08:42:32;;;;;;;;;;;;;;;2.11;92.29;100927.56;5051938;28;19928;-81
2022/01/08 08:44:58;;;;;;;;;;;;;;;2.14;92.20;100924.94;5029796;28;19922;-80
2022/01/08 08:47:23;;;;;;;;;;;;;;;2.15;92.24;100919.75;5025628;28;19921;-80
2022/01/08 08:49:49;;;;;;;;;;;;;;;2.19;92.45;100915.41;5026661;28;19921;-78
2022/01/08 08:52:14;;;;;;;;;;;;;;;2.19;92.29;100914.53;5026710;28;19925;-80
2022/01/08 08:54:41;;;;;;;;;;;;;;;2.16;92.46;100907.66;5031769;28;20527;-79
2022/01/08 08:57:07;;;;;;;;;;;;;;;2.16;92.36;100911.09;5028282;28;20000;-79
2022/01/08 08:59:32;;;;;;;;;;;;;;;2.21;92.56;100917.97;5029771;28;20370;-82
2022/01/08 09:01:58;;;;;;;;;;;;;;;2.18;93.02;100905.91;5029880;28;20032;-79
2022/01/08 09:04:23;;;;;;;;;;;;;;;2.19;93.04;100910.22;5011910;28;19918;-82
2022/01/08 09:06:49;;;;;;;;;;;;;;;2.20;92.96;100908.47;5009827;28;19953;-80
2022/01/08 09:09:14;;;;;;;;;;;;;;;2.19;93.32;100901.56;5033942;28;19925;-80
2022/01/08 09:11:40;;;;;;;;;;;;;;;2.23;93.27;100885.97;5014777;28;19959;-80
2022/01/08 09:14:06;;;;;;;;;;;;;;;2.23;93.47;100873.00;5008193;28;19917;-71
2022/01/08 09:16:31;;;;;;;;;;;;;;;2.31;92.90;100866.00;5010130;28;19917;-77
2022/01/08 09:18:57;;;;;;;;;;;;;;;2.32;92.66;100866.84;5027853;28;20393;-76
2022/01/08 09:21:22;;;;;;;;;;;;;;;2.35;93.00;100861.66;5041953;28;19967;-77
2022/01/08 09:23:48;;;;;;;;;;;;;;;2.36;93.12;100852.13;5029640;28;19960;-78
2022/01/08 09:26:13;;;;;;;;;;;;;;;2.43;92.76;100843.38;5028505;28;20008;-77
2022/01/08 09:28:39;;;;;;;;;;;;;;;2.48;92.57;100846.78;5047673;28;20346;-77
2022/01/08 09:31:04;;;;;;;;;;;;;;;2.42;93.18;100833.91;5047705;28;19917;-79
2022/01/08 09:33:30;;;;;;;;;;;;;;;2.44;93.01;100845.09;5047344;28;20293;-79
2022/01/08 09:35:56;;;;;;;;;;;;;;;2.47;93.41;100835.56;5047494;28;20496;-79
2022/01/08 09:38:21;;;;;;;;;;;;;;;2.45;93.53;100839.91;5046699;28;19917;-78
2022/01/08 09:40:46;;;;;;;;;;;;;;;2.52;93.49;100840.69;5050097;28;19975;-78
2022/01/08 09:43:12;;;;;;;;;;;;;;;2.48;93.49;100837.25;5032817;28;20683;-74
2022/01/08 09:45:37;;;;;;;;;;;;;;;2.55;93.65;100835.44;5023171;28;19928;-79
2022/01/08 09:48:03;;;;;;;;;;;;;;;2.64;93.60;100818.91;5027979;28;19979;-79
2022/01/08 09:50:28;;;;;;;;;;;;;;;2.49;93.85;100809.59;5025607;28;19927;-78
2022/01/08 09:52:57;;;;;;;;;;;;;;;2.57;94.12;100807.75;5007277;28;20217;-79
2022/01/08 09:55:24;;;;;;;;;;;;;;;2.57;93.85;100802.56;5006924;28;19917;-78
2022/01/08 09:57:50;;;;;;;;;;;;;;;2.62;94.03;100794.72;5009943;28;20377;-77
2022/01/08 10:00:16;;;;;;;;;;;;;;;2.59;94.48;100784.41;5006273;28;19918;-78
2022/01/08 10:02:42;;;;;;;;;;;;;;;2.62;94.50;100782.63;5007725;28;19917;-78
2022/01/08 10:05:22;;;;;;;;;;;;;;;2.72;94.18;100777.28;5008013;28;19972;-79
2022/01/08 10:08:03;;;;;;;;;;;;;;;2.63;94.93;100768.78;5010592;28;19935;-78
2022/01/08 10:10:28;;;;;;;;;;;;;;;2.59;95.27;100769.69;5020133;28;19924;-79
2022/01/08 10:13:09;;;;;;;;;;;;;;;2.55;95.46;100765.41;5017129;28;19921;-81
2022/01/08 10:18:33;;;;;;;;;;;;;;;2.63;94.87;100760.13;5012603;28;19928;-71
2022/01/08 10:20:59;;;;;;;;;;;;;;;2.40;96.02;100763.06;5007996;28;21228;-70
2022/01/08 10:23:25;;;;;;;;;;;;;;;2.47;96.37;100750.00;4989241;28;20004;-71
2022/01/08 10:26:06;;;;;;;;;;;;;;;2.56;95.90;100748.97;4977630;28;19917;-70
2022/01/08 10:28:32;;;;;;;;;;;;;;;2.54;95.82;100747.28;5002129;28;20007;-70
2022/01/08 10:31:16;;;;;;;;;;;;;;;2.44;96.20;100742.25;5008592;28;19921;-70
2022/01/08 10:33:42;;;;;;;;;;;;;;;2.48;96.07;100732.69;5000469;28;20437;-72
2022/01/08 10:36:08;;;;;;;;;;;;;;;2.44;96.25;100729.28;5007981;28;20595;-70
2022/01/08 10:38:34;;;;;;;;;;;;;;;2.44;96.59;100731.00;5013985;28;20008;-70
2022/01/08 10:41:01;;;;;;;;;;;;;;;2.45;96.27;100724.94;5010724;28;19917;-71
2022/01/08 10:43:41;;;;;;;;;;;;;;;2.44;96.37;100716.31;5006372;28;19924;-73
2022/01/08 10:46:08;;;;;;;;;;;;;;;2.46;96.01;100706.78;4999710;28;20394;-73
2022/01/08 10:48:33;;;;;;;;;;;;;;;2.50;96.18;100705.00;5011127;28;19921;-73
2022/01/08 10:51:14;;;;;;;;;;;;;;;2.52;95.92;100703.25;4991124;28;19933;-73
2022/01/08 10:53:55;;;;;;;;;;;;;;;2.51;96.28;100700.66;5017660;28;19983;-73
2022/01/08 10:56:21;;;;;;;;;;;;;;;2.58;96.04;100687.56;5027302;28;19932;-74
2022/01/08 10:58:52;;;;;;;;;;;;;;;2.65;95.50;100687.47;5026172;28;20440;-73
2022/01/08 11:01:34;;;;;;;;;;;;;;;2.73;95.26;100673.47;5022231;28;19929;-73
2022/01/08 11:04:00;;;;;;;;;;;;;;;2.79;94.75;100659.53;5021453;28;20031;-74
2022/01/08 11:06:25;;;;;;;;;;;;;;;2.80;94.24;100650.88;5026161;28;20021;-71
2022/01/08 11:09:05;;;;;;;;;;;;;;;2.86;94.08;100644.72;5023254;28;20016;-70
2022/01/08 11:11:31;;;;;;;;;;;;;;;2.98;93.96;100639.31;5018755;28;20741;-71
2022/01/08 11:14:04;;;;;;;;;;;;;;;3.07;92.80;100623.56;5027242;28;20015;-72
2022/01/08 11:16:30;;;;;;;;;;;;;;;3.08;92.70;100608.88;5024676;28;20386;-72
2022/01/08 11:18:55;;;;;;;;;;;;;;;3.06;93.02;100600.25;5022147;28;19935;-73
2022/01/08 11:21:22;;;;;;;;;;;;;;;3.04;92.53;100594.22;5025773;28;19921;-73
2022/01/08 11:23:47;;;;;;;;;;;;;;;3.04;92.33;100578.66;5030741;28;19917;-73
2022/01/08 11:26:13;;;;;;;;;;;;;;;2.92;92.13;100572.81;5022312;28;20309;-75
2022/01/08 11:28:42;;;;;;;;;;;;;;;2.93;93.10;100565.88;5043967;28;19992;-73
2022/01/08 11:31:11;;;;;;;;;;;;;;;3.01;92.58;100556.22;5023420;28;19971;-73
2022/01/08 11:33:42;;;;;;;;;;;;;;;2.99;92.58;100555.41;5020305;28;19921;-72
2022/01/08 11:36:08;;;;;;;;;;;;;;;2.95;92.77;100548.53;5025655;28;20004;-72
2022/01/08 11:38:33;;;;;;;;;;;;;;;2.97;92.66;100533.81;5020934;28;20032;-71
2022/01/08 11:40:59;;;;;;;;;;;;;;;3.15;91.66;100522.19;5027879;28;19923;-73
2022/01/08 11:43:25;;;;;;;;;;;;;;;3.16;91.04;100513.53;5026209;28;19921;-73
2022/01/08 11:45:53;;;;;;;;;;;;;;;3.08;90.69;100498.09;5022106;28;20351;-72
2022/01/08 11:48:21;;;;;;;;;;;;;;;3.08;90.87;100487.72;5024514;28;20271;-73
2022/01/08 11:50:49;;;;;;;;;;;;;;;2.97;91.41;100481.06;5021495;28;20389;-72
2022/01/08 11:53:30;;;;;;;;;;;;;;;2.96;90.78;100464.63;5020071;28;20293;-73
2022/01/08 11:55:57;;;;;;;;;;;;;;;3.03;90.59;100461.00;5020634;28;20834;-73
2022/01/08 11:58:26;;;;;;;;;;;;;;;3.07;90.57;100441.88;5003901;28;19918;-74
2022/01/08 12:01:06;;;;;;;;;;;;;;;3.07;89.84;100428.91;5025393;28;19965;-74
2022/01/08 12:03:33;;;;;;;;;;;;;;;3.09;90.15;100421.06;5020830;28;19929;-72
2022/01/08 12:05:59;;;;;;;;;;;;;;;3.18;89.62;100402.72;5019900;28;21098;-72
2022/01/08 12:08:45;;;;;;;;;;;;;;;3.31;89.00;100392.06;5021327;28;19928;-73
2022/01/08 12:11:10;;;;;;;;;;;;;;;3.23;90.09;100389.63;5017830;28;19932;-73
2022/01/08 12:13:52;;;;;;;;;;;;;;;3.38;90.11;100370.22;5022865;28;19925;-71
2022/01/08 12:16:32;;;;;;;;;;;;;;;3.38;89.63;100365.88;5016033;28;19929;-71
2022/01/08 12:18:58;;;;;;;;;;;;;;;3.27;90.60;100354.06;5012072;28;19922;-71
2022/01/08 12:21:39;;;;;;;;;;;;;;;3.48;89.81;100332.75;5025433;28;19922;-70
2022/01/08 12:24:20;;;;;;;;;;;;;;;3.44;89.45;100335.47;5024818;28;19955;-71
2022/01/08 12:26:45;;;;;;;;;;;;;;;3.38;90.44;100334.72;5025759;28;19956;-71
2022/01/08 12:29:10;;;;;;;;;;;;;;;3.28;91.50;100338.44;5025308;28;20508;-72
2022/01/08 12:31:51;;;;;;;;;;;;;;;3.17;92.60;100335.25;5023107;28;19925;-71
2022/01/08 12:34:34;;;;;;;;;;;;;;;3.21;92.22;100322.16;5016163;28;19969;-71
2022/01/08 12:37:01;;;;;;;;;;;;;;;3.19;92.19;100302.31;5006938;28;19927;-71
2022/01/08 12:39:41;;;;;;;;;;;;;;;3.18;93.25;100298.88;5019705;28;19921;-72
2022/01/08 12:42:22;;;;;;;;;;;;;;;3.27;92.89;100271.00;5019487;28;19917;-73
2022/01/08 12:45:03;;;;;;;;;;;;;;;3.20;93.62;100265.09;5015918;28;20126;-72
2022/01/08 12:47:44;;;;;;;;;;;;;;;2.98;94.93;100257.00;5013919;28;19999;-72
2022/01/08 12:50:24;;;;;;;;;;;;;;;3.00;95.38;100253.47;5016691;28;20770;-70
2022/01/08 12:53:05;;;;;;;;;;;;;;;2.98;95.53;100257.84;5025982;28;20231;-72
2022/01/08 12:55:31;;;;;;;;;;;;;;;2.96;94.77;100249.25;5024923;28;19930;-72
2022/01/08 12:57:57;;;;;;;;;;;;;;;2.85;95.93;100233.97;5026389;28;20298;-72
2022/01/08 13:00:23;;;;;;;;;;;;;;;3.00;95.12;100230.13;5025258;28;19925;-71
2022/01/08 13:02:48;;;;;;;;;;;;;;;2.82;95.67;100217.59;5027505;28;20352;-73
2022/01/08 13:05:14;;;;;;;;;;;;;;;2.78;96.38;100219.41;5024589;28;19921;-73
2022/01/08 13:07:54;;;;;;;;;;;;;;;2.70;96.92;100200.59;5025939;28;20366;-72
2022/01/08 13:10:20;;;;;;;;;;;;;;;2.66;96.77;100196.38;5023668;28;20008;-71
2022/01/08 13:13:00;;;;;;;;;;;;;;;2.72;96.94;100183.28;5008288;28;20008;-72
2022/01/08 13:15:41;;;;;;;;;;;;;;;2.73;96.89;100170.25;5025083;28;19921;-74
2022/01/08 13:18:22;;;;;;;;;;;;;;;2.76;97.35;100174.50;5026686;28;20374;-74
2022/01/08 13:20:58;;;;;;;;;;;;;;;2.77;96.79;100173.63;5024523;28;19963;-74